Terminal Aerodrome Forecast
Issued by NWS

Home | Current Version | Previous Version | Text Only | Print | Product List | Glossary On
Versions: 1 2 3 4 5 6 7 8 9 10 11 12 13 14 15 16 17 18 19
000
FTUS46 KPDT 221600 AAA
TAFALW
TAF AMD
KALW 221605Z 2216/2312 17015G22KT P6SM VCSH OVC070
     FM221700 17015G22KT P6SM -SHRA OVC060
     FM230200 15012KT P6SM -RA OVC060=

USA.gov is the U.S. government's official web portal to all federal, state and local government web resources and services.